Latest Weather Observations for Kingscote

IDS60801

Issued at 3:31 pm CST Sunday 5 July 2015 (issued every 30 minutes, with the page automatically refreshed every 10 minutes)

About weather observations | Map of weather stations | Latest weather observations for SA | Other Formats
Station Details ID: 022841 Name: KINGSCOTE AERO Lat: -35.71 Lon: 137.52 Height: 6.23 m
Data from the previous 72 hours. | See also: Recent months at Kingscote
Date/Time
CST
Temp
°C
App
Temp
°C
Dew
Point
Rel
Hum
%
Delta-T
°C
Wind Press
QNH
hPa
Press
MSL
hPa
Rain
since 9 am
mm
Dir
 
Spd
km/h
Gust
km/h
Spd
kts
Gust
kts
05/03:30pm 15.4 11.0 9.1 66 3.2 NNW 22 32 12 17 1015.4 1015.4 0.0
05/03:00pm 17.0 12.8 9.7 62 3.8 NW 22 33 12 18 1015.5 1015.5 0.0
05/02:30pm 16.3 10.8 9.3 63 3.6 NW 28 39 15 21 1015.7 1015.7 0.0
05/02:00pm 17.0 11.2 7.9 55 4.6 NW 28 39 15 21 1015.8 1015.8 0.0
05/01:30pm 17.4 12.2 8.8 57 4.4 NW 26 35 14 19 1016.3 1016.3 0.0
05/01:00pm 17.0 12.2 8.7 58 4.3 NNW 24 32 13 17 1016.7 1016.7 0.0
05/12:30pm 16.9 10.8 8.3 57 4.4 NW 30 41 16 22 1016.8 1016.8 0.0
05/12:00pm 15.9 11.5 9.1 64 3.5 NNW 22 35 12 19 1017.3 1017.3 0.0
05/11:30am 16.7 13.2 10.3 66 3.4 NNW 19 32 10 17 1017.7 1017.7 0.0
05/11:00am 15.1 11.9 10.1 72 2.6 NNW 17 24 9 13 1018.2 1018.2 0.0
05/10:30am 14.7 11.2 10.3 75 2.3 NNW 19 26 10 14 1018.4 1018.4 0.0
05/10:00am 14.3 10.8 10.3 77 2.1 NNW 19 26 10 14 1018.6 1018.6 0.0
05/09:30am 13.9 10.5 10.7 81 1.7 NNW 19 26 10 14 1018.7 1018.7 0.0
05/09:00am 13.7 10.8 11.0 84 1.4 NNW 17 22 9 12 1018.7 1018.7 0.2
05/08:30am 12.7 10.6 11.3 91 0.7 N 13 22 7 12 1018.8 1018.8 0.2
05/08:00am 12.4 10.6 11.0 91 0.7 N 11 15 6 8 1018.7 1018.7 0.2
05/07:30am 11.8 9.8 10.0 89 0.9 N 11 17 6 9 1018.7 1018.7 0.0
05/07:00am 11.6 9.2 10.2 91 0.7 N 13 15 7 8 1018.6 1018.6 0.0
05/06:30am 11.4 8.2 9.8 90 0.8 NNW 17 22 9 12 1018.5 1018.5 0.0
05/06:00am 11.0 8.7 9.1 88 0.9 N 11 17 6 9 1018.4 1018.4 0.0
05/05:30am 11.3 8.9 10.0 92 0.7 NNW 13 19 7 10 1018.3 1018.3 0.0
05/05:00am 10.7 8.4 10.4 98 0.2 NNW 13 19 7 10 1018.4 1018.4 0.0
05/04:30am 7.3 4.9 7.0 98 0.1 N 9 11 5 6 1018.5 1018.5 0.0
05/04:00am 4.0 1.3 3.6 97 0.2 N 7 7 4 4 1018.6 1018.6 0.0
05/03:30am 4.3 1.3 3.9 97 0.2 NNW 9 11 5 6 1018.8 1018.8 0.0
05/03:00am 4.2 2.8 3.8 97 0.2 CALM 0 0 0 0 1019.0 1019.0 0.0
05/02:54am 4.2 2.8 3.8 97 0.2 CALM 0 0 0 0 1019.0 1019.0 0.0
05/02:37am 4.2 2.8 3.8 97 0.2 CALM 0 0 0 0 1019.2 1019.2 0.0
05/02:30am 4.3 3.0 3.9 97 0.2 CALM 0 0 0 0 1019.3 1019.3 0.0
05/02:23am 4.6 3.3 4.3 98 0.1 CALM 0 0 0 0 1019.3 1019.3 0.0
05/02:00am 4.2 2.8 3.8 97 0.2 CALM 0 0 0 0 1019.2 1019.2 0.0
05/01:41am 4.3 3.0 3.9 97 0.2 CALM 0 0 0 0 1019.2 1019.2 0.0
05/01:30am 4.2 2.8 3.8 97 0.2 CALM 0 0 0 0 1019.3 1019.3 0.0
05/01:24am 4.3 3.0 3.9 97 0.2 CALM 0 0 0 0 1019.3 1019.3 0.0
05/01:00am 4.0 2.6 3.6 97 0.2 CALM 0 0 0 0 1019.4 1019.4 0.0
05/12:30am 4.7 3.4 4.3 97 0.2 CALM 0 0 0 0 1019.6 1019.6 0.0
05/12:27am 4.8 3.6 4.4 97 0.2 CALM 0 0 0 0 1019.7 1019.7 0.0
05/12:24am 4.7 3.4 4.3 97 0.2 CALM 0 0 0 0 1019.8 1019.8 0.0
05/12:04am 5.0 3.8 4.6 97 0.2 CALM 0 0 0 0 1019.9 1019.9 0.0
05/12:00am 5.1 3.9 4.7 97 0.2 CALM 0 0 0 0 1020.0 1020.0 0.0
 
Date/Time
CST
Temp
°C
App
Temp
°C
Dew
Point
Rel
Hum
%
Delta-T
°C
Wind Press
QNH
hPa
Press
MSL
hPa
Rain
since 9 am
mm
Dir
 
Spd
km/h
Gust
km/h
Spd
kts
Gust
kts
04/11:30pm 6.0 5.0 5.6 97 0.2 CALM 0 0 0 0 1020.2 1020.2 0.0
04/11:28pm 6.0 5.0 5.6 97 0.2 CALM 0 0 0 0 1020.2 1020.2 0.0
04/11:00pm 5.8 4.8 5.4 97 0.2 CALM 0 0 0 0 1020.4 1020.4 0.0
04/10:30pm 6.3 5.4 5.9 97 0.2 CALM 0 0 0 0 1020.7 1020.7 0.0
04/10:00pm 6.1 5.1 5.7 97 0.2 CALM 0 0 0 0 1020.8 1020.8 0.0
04/09:30pm 6.1 5.1 5.7 97 0.2 CALM 0 0 0 0 1020.8 1020.8 0.0
04/09:00pm 6.5 5.6 5.9 96 0.3 CALM 0 0 0 0 1021.0 1021.0 0.0
04/08:30pm 7.6 6.9 7.0 96 0.3 CALM 0 0 0 0 1020.9 1020.9 0.0
04/08:00pm 7.1 6.2 6.0 93 0.5 CALM 0 0 0 0 1021.0 1021.0 0.0
04/07:30pm 9.1 8.7 8.3 95 0.4 CALM 0 0 0 0 1020.9 1020.9 0.0
04/07:28pm 9.6 9.4 9.0 96 0.3 CALM 0 0 0 0 1020.9 1020.9 0.0
04/07:00pm 9.8 9.6 9.0 95 0.4 CALM 0 0 0 0 1020.9 1020.9 0.0
04/06:30pm 10.2 8.9 9.3 94 0.4 ENE 6 7 3 4 1021.1 1021.1 0.0
04/06:00pm 10.9 8.8 9.8 93 0.6 NE 11 11 6 6 1021.1 1021.1 0.0
04/05:30pm 12.1 9.8 10.5 90 0.8 NE 13 15 7 8 1020.9 1020.9 0.0
04/05:00pm 13.4 11.6 10.9 85 1.3 NE 11 13 6 7 1020.9 1020.9 0.0
04/04:30pm 14.6 13.0 11.4 81 1.7 N 11 15 6 8 1021.1 1021.1 0.0
04/04:00pm 15.0 12.4 10.8 76 2.2 NNE 15 19 8 10 1020.9 1020.9 0.0
04/03:30pm 15.7 13.3 11.3 75 2.4 NNE 15 20 8 11 1021.1 1021.1 0.0
04/03:00pm 16.1 13.9 10.8 71 2.8 N 13 17 7 9 1021.0 1021.0 0.0
04/02:30pm 15.9 13.6 10.4 70 2.9 NNW 13 20 7 11 1020.9 1020.9 0.0
04/02:00pm 16.0 13.0 10.7 71 2.8 NNW 17 20 9 11 1021.2 1021.2 0.0
04/01:30pm 15.8 12.5 10.8 72 2.6 N 19 24 10 13 1021.6 1021.6 0.0
04/01:00pm 16.5 12.9 9.9 65 3.5 NNW 19 26 10 14 1021.9 1021.9 0.0
04/12:30pm 16.1 13.4 11.7 75 2.4 NW 17 22 9 12 1022.3 1022.3 0.0
04/12:00pm 15.6 12.3 10.8 73 2.5 NW 19 28 10 15 1022.8 1022.8 0.0
04/11:30am 16.0 13.3 11.8 76 2.3 NNW 17 24 9 13 1023.2 1023.2 0.0
04/11:00am 14.9 12.3 10.7 76 2.2 NNW 15 20 8 11 1023.6 1023.6 0.0
04/10:30am 14.3 12.2 11.3 82 1.6 NNW 13 19 7 10 1023.8 1023.8 0.0
04/10:00am 14.1 11.2 11.1 82 1.6 NNW 17 22 9 12 1023.9 1023.9 0.0
04/09:30am 13.1 11.8 11.3 89 0.9 N 9 15 5 8 1023.9 1023.9 0.0
04/09:00am 12.1 11.1 11.0 93 0.6 N 7 9 4 5 1023.7 1023.7 0.0
04/08:30am 11.7 11.9 10.6 93 0.6 CALM 0 9 0 5 1023.6 1023.6 0.0
04/08:00am 11.5 11.6 10.2 92 0.7 CALM 0 7 0 4 1023.4 1023.4 0.0
04/07:30am 11.6 10.6 10.2 91 0.7 N 6 9 3 5 1023.3 1023.3 0.0
04/07:00am 11.8 10.3 10.5 92 0.7 NNW 9 11 5 6 1023.2 1023.2 0.0
04/06:30am 11.7 10.2 10.6 93 0.6 NNW 9 11 5 6 1023.0 1023.0 0.0
04/06:00am 11.6 10.1 10.5 93 0.6 NNW 9 13 5 7 1022.8 1022.8 0.0
04/05:30am 11.6 10.0 10.3 92 0.7 N 9 11 5 6 1022.8 1022.8 0.0
04/05:00am 11.9 10.4 10.5 91 0.7 N 9 11 5 6 1022.7 1022.7 0.0
04/04:30am 11.8 9.5 10.4 91 0.7 NNW 13 17 7 9 1023.0 1023.0 0.0
04/04:00am 10.9 9.6 10.1 95 0.4 NNW 7 13 4 7 1023.1 1023.1 0.0
04/03:30am 9.9 9.7 9.0 94 0.4 CALM 0 0 0 0 1023.2 1023.2 0.0
04/03:00am 9.9 9.7 9.0 94 0.4 CALM 0 0 0 0 1023.4 1023.4 0.0
04/02:30am 10.0 9.8 9.1 94 0.4 CALM 0 0 0 0 1023.5 1023.5 0.0
04/02:00am 9.9 9.6 8.8 93 0.5 CALM 0 0 0 0 1024.0 1024.0 0.0
04/01:30am 10.3 10.1 9.2 93 0.5 CALM 0 0 0 0 1023.9 1023.9 0.0
04/01:00am 10.3 10.1 9.1 92 0.6 CALM 0 0 0 0 1023.9 1023.9 0.0
04/12:30am 10.7 10.5 9.1 90 0.8 CALM 0 0 0 0 1024.0 1024.0 0.0
04/12:00am 10.8 10.6 9.2 90 0.8 CALM 0 0 0 0 1024.3 1024.3 0.0
 
Date/Time
CST
Temp
°C
App
Temp
°C
Dew
Point
Rel
Hum
%
Delta-T
°C
Wind Press
QNH
hPa
Press
MSL
hPa
Rain
since 9 am
mm
Dir
 
Spd
km/h
Gust
km/h
Spd
kts
Gust
kts
03/11:30pm 10.8 10.6 9.1 89 0.8 CALM 0 0 0 0 1024.5 1024.5 0.0
03/11:00pm 10.8 10.6 9.2 90 0.8 CALM 0 0 0 0 1024.7 1024.7 0.0
03/10:30pm 10.5 10.3 8.9 90 0.8 CALM 0 0 0 0 1024.8 1024.8 0.0
03/10:00pm 10.3 10.0 8.6 89 0.8 CALM 0 0 0 0 1024.9 1024.9 0.0
03/09:30pm 10.1 9.7 8.4 89 0.8 CALM 0 0 0 0 1025.1 1025.1 0.0
03/09:00pm 10.0 9.6 8.3 89 0.8 CALM 0 0 0 0 1025.4 1025.4 0.0
03/08:30pm 10.2 9.7 7.8 85 1.1 CALM 0 0 0 0 1025.4 1025.4 0.0
03/08:00pm 10.2 9.6 7.6 84 1.2 CALM 0 0 0 0 1025.4 1025.4 0.0
03/07:30pm 10.0 9.4 7.4 84 1.2 CALM 0 0 0 0 1025.5 1025.5 0.0
03/07:00pm 10.4 9.8 7.3 81 1.5 CALM 0 0 0 0 1025.4 1025.4 0.0
03/06:30pm 11.0 9.2 7.1 77 1.8 N 6 7 3 4 1025.4 1025.4 0.0
03/06:00pm 11.5 9.7 7.2 75 2.0 N 6 9 3 5 1025.5 1025.5 0.0
03/05:30pm 11.7 9.7 7.2 74 2.1 N 7 9 4 5 1025.4 1025.4 0.0
03/05:00pm 11.8 9.8 7.1 73 2.3 N 7 9 4 5 1025.5 1025.5 0.0
03/04:30pm 12.0 9.6 7.1 72 2.3 NNW 9 13 5 7 1025.6 1025.6 0.0
03/04:00pm 12.2 9.4 6.9 70 2.5 N 11 13 6 7 1025.7 1025.7 0.0
03/03:30pm 12.2 9.4 6.9 70 2.5 N 11 15 6 8 1025.7 1025.7 0.0
03/03:00pm 12.2 8.5 6.5 68 2.7 NNW 15 20 8 11 1025.9 1025.9 0.0
03/02:30pm 12.5 9.6 6.5 67 2.8 NNW 11 17 6 9 1025.9 1025.9 0.0
03/02:00pm 12.2 8.8 6.0 66 2.9 NNW 13 20 7 11 1026.2 1026.2 0.0
03/01:30pm 12.3 8.5 5.9 65 3.0 NNW 15 22 8 12 1026.6 1026.6 0.0
03/01:00pm 12.3 8.5 5.9 65 3.0 NNW 15 24 8 13 1026.9 1026.9 0.0
03/12:30pm 12.2 8.4 6.0 66 2.9 N 15 19 8 10 1027.0 1027.0 0.0
03/12:00pm 12.4 8.3 6.2 66 2.9 N 17 22 9 12 1027.5 1027.5 0.0
03/11:30am 13.3 10.1 6.9 65 3.1 N 13 22 7 12 1028.1 1028.1 0.0
03/11:00am 12.5 10.1 6.8 68 2.7 N 9 17 5 9 1028.5 1028.5 0.0
03/10:30am 11.5 11.2 8.5 82 1.5 CALM 0 0 0 0 1028.7 1028.7 0.0
03/10:00am 9.9 9.4 7.7 86 1.1 CALM 0 0 0 0 1028.7 1028.7 0.0
03/09:30am 9.0 8.3 7.1 88 0.9 CALM 0 0 0 0 1028.6 1028.6 0.0
03/09:00am 8.3 7.6 6.9 91 0.6 CALM 0 0 0 0 1028.6 1028.6 0.0
03/08:30am 7.9 7.1 6.7 92 0.5 CALM 0 0 0 0 1028.4 1028.4 0.0
03/08:00am 7.6 6.8 6.5 93 0.5 CALM 0 0 0 0 1028.5 1028.5 0.0
03/07:30am 7.6 6.8 6.4 92 0.5 CALM 0 0 0 0 1028.5 1028.5 0.0
03/07:00am 7.3 6.4 5.9 91 0.6 CALM 0 0 0 0 1028.7 1028.7 0.0
03/06:30am 6.9 5.9 5.7 92 0.5 CALM 0 0 0 0 1028.4 1028.4 0.0
03/06:00am 6.5 5.4 5.3 92 0.5 CALM 0 0 0 0 1028.2 1028.2 0.0
03/05:30am 6.4 5.4 5.5 94 0.4 CALM 0 0 0 0 1028.4 1028.4 0.0
03/05:00am 6.4 5.4 5.5 94 0.4 CALM 0 0 0 0 1028.3 1028.3 0.0
03/04:30am 6.5 5.5 5.6 94 0.4 CALM 0 0 0 0 1028.5 1028.5 0.0
03/04:00am 6.0 4.9 5.3 95 0.3 CALM 0 0 0 0 1028.9 1028.9 0.0
03/03:30am 5.7 4.6 5.1 96 0.3 CALM 0 0 0 0 1029.3 1029.3 0.0
03/03:00am 4.9 3.6 4.3 96 0.3 CALM 0 0 0 0 1029.5 1029.5 0.0
03/02:30am 4.3 2.9 3.7 96 0.2 CALM 0 0 0 0 1029.7 1029.7 0.0
03/02:00am 4.0 2.6 3.4 96 0.2 CALM 0 0 0 0 1029.6 1029.6 0.0
03/01:30am 3.3 1.7 2.7 96 0.2 CALM 0 0 0 0 1029.5 1029.5 0.0
03/01:00am 3.2 1.6 2.6 96 0.2 CALM 0 0 0 0 1029.6 1029.6 0.0
03/12:30am 3.0 0.1 2.4 96 0.2 W 7 7 4 4 1030.0 1030.0 0.0
03/12:00am 2.3 -0.7 1.7 96 0.2 W 7 7 4 4 1030.4 1030.4 0.0
 
Date/Time
CST
Temp
°C
App
Temp
°C
Dew
Point
Rel
Hum
%
Delta-T
°C
Wind Press
QNH
hPa
Press
MSL
hPa
Rain
since 9 am
mm
Dir
 
Spd
km/h
Gust
km/h
Spd
kts
Gust
kts
02/11:30pm 2.6 -0.4 1.9 95 0.3 WSW 7 9 4 5 1030.6 1030.6 0.0
02/11:00pm 2.8 0.8 2.1 95 0.3 W 2 9 1 5 1030.5 1030.5 0.0
02/10:30pm 3.5 2.0 2.8 95 0.3 CALM 0 0 0 0 1030.6 1030.6 0.0
02/10:00pm 3.8 2.3 2.9 94 0.4 CALM 0 0 0 0 1030.7 1030.7 0.0
02/09:30pm 4.1 2.6 3.1 93 0.4 CALM 0 0 0 0 1030.7 1030.7 0.0
02/09:00pm 4.2 2.7 3.2 93 0.4 CALM 0 0 0 0 1030.7 1030.7 0.0
02/08:30pm 5.0 3.6 3.8 92 0.5 CALM 0 0 0 0 1030.8 1030.8 0.0
02/08:00pm 5.7 4.4 4.3 91 0.6 CALM 0 0 0 0 1030.7 1030.7 0.0
02/07:30pm 6.2 5.0 4.5 89 0.7 CALM 0 0 0 0 1030.4 1030.4 0.0
02/07:00pm 6.5 5.3 4.7 88 0.8 CALM 0 0 0 0 1030.0 1030.0 0.0
02/06:30pm 7.3 6.3 5.4 88 0.8 CALM 0 0 0 0 1029.8 1029.8 0.0
02/06:00pm 8.1 7.0 5.0 81 1.4 CALM 0 0 0 0 1029.6 1029.6 0.0
02/05:30pm 9.9 8.5 5.7 75 1.9 S 2 6 1 3 1029.5 1029.5 0.0
02/05:00pm 11.4 8.7 5.5 67 2.7 SSE 9 15 5 8 1029.4 1029.4 0.0
02/04:30pm 12.5 9.4 5.7 63 3.2 SSE 11 13 6 7 1029.3 1029.3 0.0
02/04:00pm 14.0 10.0 5.1 55 4.2 S 15 19 8 10 1029.6 1029.6 0.0

Other Formats:

Comma delimited format used in spreadsheet applications
http://www.bom.gov.au/fwo/IDS60801/IDS60801.95807.axf

JavaScript Object Notation format (JSON) in row-major order
http://www.bom.gov.au/fwo/IDS60801/IDS60801.95807.json